createdAt,value
2023-09-11T00:02:18.485Z,88.53
2023-09-11T00:04:46.147Z,100.57
2023-09-11T00:07:14.778Z,93.80
2023-09-11T00:09:42.350Z,99.33
2023-09-11T00:12:10.056Z,90.80
2023-09-11T00:14:39.139Z,91.50
2023-09-11T00:17:06.797Z,90.10
2023-09-11T00:19:34.438Z,92.50
2023-09-11T00:22:02.088Z,99.50
2023-09-11T00:24:29.707Z,97.07
2023-09-11T00:26:57.747Z,95.10
2023-09-11T00:29:25.422Z,106.93
2023-09-11T00:31:54.481Z,117.77
2023-09-11T00:34:22.134Z,125.03
2023-09-11T00:36:49.851Z,125.50
2023-09-11T00:39:17.471Z,120.30
2023-09-11T00:41:45.265Z,142.27
2023-09-11T00:44:13.053Z,129.80
2023-09-11T00:46:41.418Z,124.40
2023-09-11T00:49:11.128Z,135.03
2023-09-11T00:51:39.398Z,116.13
2023-09-11T00:54:07.744Z,115.27
2023-09-11T00:56:36.025Z,113.40
2023-09-11T00:59:05.365Z,114.73
2023-09-11T01:01:33.555Z,115.33
2023-09-11T01:04:01.400Z,116.07
2023-09-11T01:06:30.707Z,108.57
2023-09-11T01:08:59.120Z,112.17
2023-09-11T01:11:26.794Z,100.07
2023-09-11T01:13:54.914Z,111.03
2023-09-11T01:16:29.279Z,109.83
2023-09-11T01:19:04.000Z,115.20
2023-09-11T01:22:03.386Z,105.63
2023-09-11T01:24:46.931Z,110.43
2023-09-11T01:27:37.283Z,113.83
2023-09-11T01:30:08.944Z,107.90
2023-09-11T01:32:38.368Z,110.30
2023-09-11T01:35:06.761Z,104.80
2023-09-11T01:37:34.497Z,103.20
2023-09-11T01:40:02.201Z,101.30
2023-09-11T01:42:34.884Z,107.07
2023-09-11T01:45:05.411Z,110.47
2023-09-11T01:47:35.588Z,103.80
2023-09-11T01:50:07.087Z,104.20
2023-09-11T01:52:37.126Z,107.53
2023-09-11T01:55:06.026Z,111.63
2023-09-11T01:57:33.722Z,114.87
2023-09-11T02:00:01.426Z,123.83
2023-09-11T02:02:30.895Z,124.47
2023-09-11T02:05:00.044Z,126.47
2023-09-11T02:07:27.702Z,126.80
2023-09-11T02:09:55.444Z,121.20
2023-09-11T02:12:24.187Z,126.80
2023-09-11T02:14:51.839Z,124.83
2023-09-11T02:17:19.495Z,124.97
2023-09-11T02:19:47.128Z,119.00
2023-09-11T02:22:17.154Z,120.40
2023-09-11T02:24:44.737Z,118.33
2023-09-11T02:27:12.322Z,120.63
2023-09-11T02:29:39.990Z,118.53
2023-09-11T02:32:07.949Z,116.93
2023-09-11T02:34:35.555Z,117.90
2023-09-11T02:37:03.416Z,126.77
2023-09-11T02:39:32.402Z,124.73
2023-09-11T02:42:00.337Z,136.00
2023-09-11T02:44:28.026Z,139.70
2023-09-11T02:46:55.659Z,142.87
2023-09-11T02:49:23.236Z,276.80
2023-09-11T02:51:50.926Z,155.33
2023-09-11T02:54:20.494Z,233.37
2023-09-11T02:56:49.513Z,148.87
2023-09-11T02:59:17.273Z,233.67
2023-09-11T03:01:45.867Z,170.43
2023-09-11T03:04:13.522Z,145.17
2023-09-11T03:06:41.234Z,167.33
2023-09-11T03:09:09.011Z,165.47
2023-09-11T03:11:36.760Z,169.60
2023-09-11T03:14:05.924Z,152.53
2023-09-11T03:16:33.613Z,174.27
2023-09-11T03:19:01.206Z,147.23
2023-09-11T03:21:28.894Z,145.23
2023-09-11T03:23:56.560Z,161.00
2023-09-11T03:26:24.452Z,153.53
2023-09-11T03:28:52.056Z,155.03
2023-09-11T03:31:21.020Z,142.83
2023-09-11T03:33:49.015Z,144.53
2023-09-11T03:36:18.050Z,163.17
2023-09-11T03:38:46.176Z,151.77
2023-09-11T03:41:13.899Z,152.20
2023-09-11T03:43:41.664Z,151.20
2023-09-11T03:46:09.375Z,138.40
2023-09-11T03:48:38.492Z,155.87
2023-09-11T03:51:06.268Z,151.30
2023-09-11T03:53:35.113Z,159.47
2023-09-11T03:56:03.530Z,156.17
2023-09-11T03:58:31.294Z,154.57
2023-09-11T04:00:58.993Z,148.47
2023-09-11T04:03:26.782Z,139.93
2023-09-11T04:05:56.024Z,148.50
2023-09-11T04:08:23.834Z,159.60
2023-09-11T04:10:51.544Z,151.03
2023-09-11T04:13:19.209Z,170.93
2023-09-11T04:15:46.995Z,151.87
2023-09-11T04:18:14.813Z,156.47
2023-09-11T04:20:42.610Z,154.47
2023-09-11T04:23:11.672Z,175.03
2023-09-11T04:25:39.495Z,152.57
2023-09-11T04:28:07.606Z,199.13
2023-09-11T04:30:35.238Z,187.40
2023-09-11T04:33:04.191Z,161.43
2023-09-11T04:35:32.245Z,172.37
2023-09-11T04:37:59.928Z,246.20
2023-09-11T04:40:28.900Z,172.20
2023-09-11T04:42:56.443Z,184.50
2023-09-11T04:45:24.041Z,214.87
2023-09-11T04:47:51.960Z,189.17
2023-09-11T04:50:20.010Z,185.23
2023-09-11T04:52:47.925Z,186.03
2023-09-11T04:55:15.573Z,188.80
2023-09-11T04:57:44.591Z,190.07
2023-09-11T05:00:13.005Z,258.43
2023-09-11T05:02:40.777Z,176.27
2023-09-11T05:05:09.162Z,215.90
2023-09-11T05:07:36.817Z,180.60
2023-09-11T05:10:06.695Z,197.60
2023-09-11T05:12:34.431Z,175.77
2023-09-11T05:15:04.004Z,183.57
2023-09-11T05:17:31.685Z,207.87
2023-09-11T05:19:59.339Z,197.30
2023-09-11T05:22:27.104Z,168.63
2023-09-11T05:24:55.047Z,187.60
2023-09-11T05:27:23.407Z,179.50
2023-09-11T05:29:51.237Z,177.87
2023-09-11T05:32:21.467Z,198.83
2023-09-11T05:34:49.069Z,181.53
2023-09-11T05:37:16.731Z,179.53
2023-09-11T05:39:45.011Z,180.13
2023-09-11T05:42:12.821Z,186.20
2023-09-11T05:44:40.487Z,177.60
2023-09-11T05:47:09.731Z,223.90
2023-09-11T05:49:38.800Z,163.97
2023-09-11T05:52:07.878Z,162.10
2023-09-11T05:54:35.919Z,159.93
2023-09-11T05:57:04.365Z,165.00
2023-09-11T05:59:32.136Z,163.57
2023-09-11T06:01:59.786Z,153.40
2023-09-11T06:04:31.835Z,165.60
2023-09-11T06:07:00.940Z,166.80
2023-09-11T06:09:28.655Z,156.60
2023-09-11T06:11:56.384Z,152.30
2023-09-11T06:14:24.448Z,149.87
2023-09-11T06:16:52.078Z,139.70
2023-09-11T06:19:19.746Z,141.93
2023-09-11T06:21:47.647Z,139.33
2023-09-11T06:24:16.683Z,135.23
2023-09-11T06:26:44.493Z,119.33
2023-09-11T06:29:13.312Z,120.73
2023-09-11T06:31:41.061Z,124.13
2023-09-11T06:34:08.973Z,111.17
2023-09-11T06:36:36.658Z,106.60
2023-09-11T06:39:07.034Z,98.27
2023-09-11T06:41:36.102Z,93.53
2023-09-11T06:44:03.829Z,90.97
2023-09-11T06:46:31.596Z,86.97
2023-09-11T06:48:59.748Z,73.00
2023-09-11T06:51:27.496Z,66.63
2023-09-11T06:53:56.388Z,72.53
2023-09-11T06:56:23.987Z,62.70
2023-09-11T06:58:53.023Z,61.27
2023-09-11T07:01:20.769Z,59.00
2023-09-11T07:03:48.994Z,65.07
2023-09-11T07:06:16.868Z,60.80
2023-09-11T07:08:44.708Z,64.13
2023-09-11T07:11:12.486Z,53.23
2023-09-11T07:13:40.159Z,62.10
2023-09-11T07:16:09.371Z,56.00
2023-09-11T07:18:37.334Z,54.13
2023-09-11T07:21:06.277Z,57.17
2023-09-11T07:23:34.950Z,54.53
2023-09-11T07:26:02.730Z,50.33
2023-09-11T07:28:30.430Z,51.87
2023-09-11T07:30:58.720Z,50.90
2023-09-11T07:33:27.857Z,53.43
2023-09-11T07:35:55.504Z,58.30
2023-09-11T07:38:23.210Z,55.83
2023-09-11T07:40:50.866Z,53.60
2023-09-11T07:43:18.528Z,53.53
2023-09-11T07:45:48.090Z,54.90
2023-09-11T07:48:15.881Z,53.27
2023-09-11T07:50:44.898Z,53.80
2023-09-11T07:53:12.790Z,52.07
2023-09-11T07:55:40.428Z,50.67
2023-09-11T07:58:10.683Z,48.30
2023-09-11T08:00:38.380Z,49.77
2023-09-11T08:03:06.758Z,53.87
2023-09-11T08:05:34.472Z,53.43
2023-09-11T08:08:04.000Z,55.23
2023-09-11T08:10:31.793Z,52.80
2023-09-11T08:13:01.114Z,53.60
2023-09-11T08:15:31.105Z,50.83
2023-09-11T08:17:58.921Z,50.20
2023-09-11T08:20:26.564Z,50.50
2023-09-11T08:22:54.169Z,57.57
2023-09-11T08:25:23.168Z,53.17
2023-09-11T08:27:50.822Z,47.37
2023-09-11T08:30:18.493Z,48.20
2023-09-11T08:32:46.218Z,50.97
2023-09-11T08:35:13.940Z,46.50
2023-09-11T08:37:41.568Z,46.27
2023-09-11T08:40:10.467Z,47.73
2023-09-11T08:42:39.496Z,46.37
2023-09-11T08:45:08.231Z,48.27
2023-09-11T08:47:36.661Z,44.17
2023-09-11T08:50:07.629Z,42.00
2023-09-11T08:52:36.287Z,40.40
2023-09-11T08:55:09.386Z,44.67
2023-09-11T08:57:41.016Z,43.23
2023-09-11T09:00:12.886Z,40.00
2023-09-11T09:02:41.827Z,38.00
2023-09-11T09:05:10.376Z,37.93
2023-09-11T09:07:40.317Z,38.90
2023-09-11T09:10:09.563Z,39.70
2023-09-11T09:12:38.618Z,37.60
2023-09-11T09:15:09.500Z,40.20
2023-09-11T09:17:37.408Z,35.77
2023-09-11T09:20:06.480Z,39.23
2023-09-11T09:22:34.074Z,36.13
2023-09-11T09:25:01.886Z,35.57
2023-09-11T09:27:32.041Z,32.03
2023-09-11T09:29:59.658Z,33.23
2023-09-11T09:32:34.705Z,26.03
2023-09-11T09:35:02.618Z,27.90
2023-09-11T09:37:30.475Z,30.47
2023-09-11T09:39:58.148Z,27.20
2023-09-11T09:42:25.819Z,23.43
2023-09-11T09:44:54.701Z,23.77
2023-09-11T09:47:23.546Z,26.37
2023-09-11T09:49:53.559Z,23.90
2023-09-11T09:52:22.981Z,24.07
2023-09-11T09:54:52.661Z,26.93
2023-09-11T09:57:22.528Z,22.57
2023-09-11T09:59:53.404Z,24.87
2023-09-11T10:02:27.325Z,25.90
2023-09-11T10:04:58.839Z,27.67
2023-09-11T10:07:38.843Z,29.20
2023-09-11T10:10:22.137Z,27.40
2023-09-11T10:12:54.224Z,21.90
2023-09-11T10:15:22.625Z,23.07
2023-09-11T10:17:54.623Z,23.93
2023-09-11T10:20:24.427Z,23.80
2023-09-11T10:22:56.079Z,21.90
2023-09-11T10:25:24.604Z,20.30
2023-09-11T10:27:58.108Z,24.80
2023-09-11T10:30:32.940Z,25.60
2023-09-11T10:33:04.228Z,22.23
2023-09-11T10:35:40.534Z,22.20
2023-09-11T10:38:09.969Z,22.17
2023-09-11T10:40:40.158Z,22.50
2023-09-11T10:43:08.290Z,21.73
2023-09-11T10:45:36.532Z,20.97
2023-09-11T10:48:04.646Z,22.60
2023-09-11T10:50:38.075Z,20.63
2023-09-11T10:53:06.942Z,21.77
2023-09-11T10:55:34.909Z,21.87
2023-09-11T10:58:05.528Z,19.47
2023-09-11T11:00:38.679Z,20.50
2023-09-11T11:03:07.011Z,18.07
2023-09-11T11:05:36.717Z,18.43
2023-09-11T11:08:05.123Z,22.03
2023-09-11T11:10:34.209Z,22.57
2023-09-11T11:13:09.139Z,23.40
2023-09-11T11:15:37.489Z,22.97
2023-09-11T11:18:10.799Z,21.33
2023-09-11T11:21:06.566Z,23.27
2023-09-11T11:23:35.916Z,23.07
2023-09-11T11:26:05.594Z,20.70
2023-09-11T11:28:41.755Z,22.20
2023-09-11T11:31:10.445Z,20.60
2023-09-11T11:33:39.202Z,16.37
2023-09-11T11:36:09.812Z,20.97
2023-09-11T11:38:38.428Z,18.90
2023-09-11T11:41:06.230Z,17.07
2023-09-11T11:43:34.101Z,15.30
2023-09-11T11:46:01.744Z,17.90
2023-09-11T11:48:29.695Z,16.20
2023-09-11T11:50:57.426Z,13.77
2023-09-11T11:53:27.401Z,17.07
2023-09-11T11:55:58.312Z,15.40
2023-09-11T11:58:27.168Z,15.67
2023-09-11T12:00:59.957Z,15.03
2023-09-11T12:03:28.860Z,17.80
2023-09-11T12:05:57.523Z,14.40
2023-09-11T12:08:26.769Z,14.00
2023-09-11T12:10:54.668Z,12.50
2023-09-11T12:13:34.669Z,13.60
2023-09-11T12:16:07.661Z,13.27
2023-09-11T12:18:38.996Z,15.97
2023-09-11T12:21:08.880Z,12.67
2023-09-11T12:23:38.138Z,14.70
2023-09-11T12:26:06.875Z,14.80
2023-09-11T12:28:35.427Z,11.50
2023-09-11T12:31:03.335Z,13.40
2023-09-11T12:33:35.362Z,20.20
2023-09-11T12:36:05.518Z,16.23
2023-09-11T12:38:33.528Z,14.23
2023-09-11T12:41:02.736Z,13.03
2023-09-11T12:43:31.117Z,15.33
2023-09-11T12:45:58.965Z,11.73
2023-09-11T12:48:27.213Z,15.83
2023-09-11T12:50:55.167Z,11.77
2023-09-11T12:53:22.905Z,17.73
2023-09-11T12:55:50.944Z,13.07
2023-09-11T12:58:19.939Z,12.43
2023-09-11T13:00:49.658Z,12.60
2023-09-11T13:03:17.511Z,15.37
2023-09-11T13:05:46.258Z,13.60
2023-09-11T13:08:16.749Z,12.83
2023-09-11T13:10:44.436Z,14.13
2023-09-11T13:13:21.267Z,10.67
2023-09-11T13:15:54.219Z,13.60
2023-09-11T13:18:21.960Z,15.37
2023-09-11T13:20:49.739Z,11.57
2023-09-11T13:23:17.450Z,15.23
2023-09-11T13:25:45.845Z,13.73
2023-09-11T13:28:13.574Z,20.73
2023-09-11T13:30:41.205Z,11.30
2023-09-11T13:33:10.358Z,14.07
2023-09-11T13:35:38.036Z,13.30
2023-09-11T13:38:05.702Z,19.57
2023-09-11T13:40:34.739Z,12.77
2023-09-11T13:43:02.400Z,14.53
2023-09-11T13:45:30.850Z,15.30
2023-09-11T13:47:59.546Z,13.23
2023-09-11T13:50:29.295Z,11.17
2023-09-11T13:52:56.934Z,11.23
2023-09-11T13:55:24.795Z,16.07
2023-09-11T13:57:52.480Z,12.20
2023-09-11T14:00:20.942Z,16.20
2023-09-11T14:02:49.007Z,11.53
2023-09-11T14:05:16.979Z,11.77
2023-09-11T14:07:45.970Z,10.97
2023-09-11T14:10:13.620Z,13.77
2023-09-11T14:12:41.250Z,10.40
2023-09-11T14:15:10.330Z,12.03
2023-09-11T14:17:38.055Z,10.73
2023-09-11T14:20:08.774Z,10.63
2023-09-11T14:22:37.576Z,12.73
2023-09-11T14:25:08.631Z,16.67
2023-09-11T14:27:36.246Z,12.37
2023-09-11T14:30:04.197Z,11.13
2023-09-11T14:32:31.923Z,14.90
2023-09-11T14:34:59.579Z,11.50
2023-09-11T14:37:27.229Z,11.37
2023-09-11T14:39:55.413Z,14.70
2023-09-11T14:42:25.561Z,11.33
2023-09-11T14:44:53.190Z,12.33
2023-09-11T14:47:20.851Z,12.80
2023-09-11T14:49:48.676Z,14.30
2023-09-11T14:52:16.272Z,13.60
2023-09-11T14:54:53.534Z,16.67
2023-09-11T14:57:24.171Z,14.57
2023-09-11T14:59:52.046Z,13.03
2023-09-11T15:02:19.993Z,16.63
2023-09-11T15:04:51.681Z,11.80
2023-09-11T15:07:21.086Z,11.33
2023-09-11T15:09:49.296Z,14.43
2023-09-11T15:12:17.463Z,12.83
2023-09-11T15:14:46.689Z,15.70
2023-09-11T15:17:14.441Z,11.60
2023-09-11T15:19:42.138Z,11.70
2023-09-11T15:22:09.744Z,17.80
2023-09-11T15:24:37.442Z,11.67
2023-09-11T15:27:05.838Z,11.17
2023-09-11T15:29:33.529Z,12.03
2023-09-11T15:34:33.165Z,11.70
2023-09-11T15:37:00.899Z,12.23
2023-09-11T15:39:28.519Z,11.50
2023-09-11T15:41:56.289Z,10.47
2023-09-11T15:44:24.008Z,10.43
2023-09-11T15:46:51.639Z,14.40
2023-09-11T15:49:20.727Z,12.90
2023-09-11T15:51:48.349Z,11.70
2023-09-11T15:54:15.984Z,18.60
2023-09-11T15:56:43.861Z,11.40
2023-09-11T15:59:12.477Z,10.40
2023-09-11T16:01:40.147Z,10.83
2023-09-11T16:04:07.939Z,11.13
2023-09-11T16:06:38.343Z,12.40
2023-09-11T16:09:06.497Z,12.37
2023-09-11T16:11:34.094Z,14.50
2023-09-11T16:14:01.769Z,13.27
2023-09-11T16:16:30.313Z,11.40
2023-09-11T16:18:58.159Z,10.73
2023-09-11T16:21:38.738Z,12.90
2023-09-11T16:24:09.427Z,12.00
2023-09-11T16:26:37.445Z,14.10
2023-09-11T16:29:05.079Z,10.90
2023-09-11T16:31:32.766Z,11.83
2023-09-11T16:34:00.537Z,13.13
2023-09-11T16:36:28.265Z,11.63
2023-09-11T16:38:56.005Z,12.63
2023-09-11T16:41:25.046Z,13.23
2023-09-11T16:43:52.663Z,15.60
2023-09-11T16:46:20.289Z,12.00
2023-09-11T16:48:48.085Z,12.73
2023-09-11T16:51:15.782Z,11.93
2023-09-11T16:53:43.529Z,10.97
2023-09-11T16:56:11.191Z,12.00
2023-09-11T16:58:40.361Z,13.00
2023-09-11T17:01:10.293Z,12.17
2023-09-11T17:03:38.144Z,14.10
2023-09-11T17:06:06.296Z,13.63
2023-09-11T17:08:34.132Z,13.57
2023-09-11T17:11:01.931Z,13.37
2023-09-11T17:13:29.689Z,14.70
2023-09-11T17:15:59.114Z,13.23
2023-09-11T17:18:26.857Z,14.90
2023-09-11T17:20:54.961Z,15.87
2023-09-11T17:23:22.713Z,16.77
2023-09-11T17:25:50.300Z,16.87
2023-09-11T17:28:17.989Z,19.57
2023-09-11T17:30:45.603Z,16.50
2023-09-11T17:33:14.761Z,19.10
2023-09-11T17:35:42.978Z,19.37
2023-09-11T17:38:11.810Z,18.60
2023-09-11T17:40:39.460Z,18.30
2023-09-11T17:43:07.078Z,20.90
2023-09-11T17:45:37.714Z,20.70
2023-09-11T17:48:06.205Z,22.17
2023-09-11T17:50:35.292Z,21.53
2023-09-11T17:53:03.125Z,23.53
2023-09-11T17:55:30.964Z,20.83
2023-09-11T17:57:58.835Z,24.07
2023-09-11T18:00:28.662Z,26.03
2023-09-11T18:02:56.592Z,26.93
2023-09-11T18:05:24.278Z,28.60
2023-09-11T18:07:53.290Z,24.83
2023-09-11T18:10:21.014Z,26.43
2023-09-11T18:12:48.725Z,28.77
2023-09-11T18:15:16.455Z,31.47
2023-09-11T18:17:44.274Z,28.53
2023-09-11T18:20:12.724Z,31.50
2023-09-11T18:22:40.428Z,30.53
2023-09-11T18:25:10.286Z,28.93
2023-09-11T18:27:39.188Z,29.20
2023-09-11T18:30:08.485Z,34.40
2023-09-11T18:32:36.810Z,34.37
2023-09-11T18:35:04.789Z,34.10
2023-09-11T18:37:32.680Z,37.20
2023-09-11T18:40:00.513Z,30.97
2023-09-11T18:42:29.528Z,27.77
2023-09-11T18:44:57.224Z,31.47
2023-09-11T18:47:24.993Z,36.97
2023-09-11T18:49:52.610Z,30.03
2023-09-11T18:52:20.234Z,27.63
2023-09-11T18:54:49.115Z,26.93
2023-09-11T18:57:16.702Z,26.50
2023-09-11T18:59:45.699Z,30.10
2023-09-11T19:02:13.346Z,26.90
2023-09-11T19:04:41.045Z,28.87
2023-09-11T19:07:08.881Z,26.37
2023-09-11T19:09:36.434Z,27.17
2023-09-11T19:12:04.526Z,27.20
2023-09-11T19:14:32.207Z,31.23
2023-09-11T19:17:01.144Z,32.87
2023-09-11T19:19:28.741Z,32.77
2023-09-11T19:21:56.380Z,33.43
2023-09-11T19:24:24.043Z,36.73
2023-09-11T19:26:53.162Z,34.47
2023-09-11T19:29:20.808Z,33.70
2023-09-11T19:31:48.467Z,37.50
2023-09-11T19:34:17.462Z,34.63
2023-09-11T19:36:45.124Z,38.40
2023-09-11T19:39:12.936Z,37.10
2023-09-11T19:41:40.737Z,36.57
2023-09-11T19:44:08.474Z,36.93
2023-09-11T19:46:36.188Z,37.80
2023-09-11T19:49:05.362Z,37.77
2023-09-11T19:51:34.430Z,36.03
2023-09-11T19:54:02.233Z,40.20
2023-09-11T19:56:30.070Z,37.47
2023-09-11T19:58:58.043Z,39.07
2023-09-11T20:01:26.337Z,39.70
2023-09-11T20:03:54.832Z,38.60
2023-09-11T20:06:22.649Z,37.50
2023-09-11T20:08:51.685Z,39.20
2023-09-11T20:11:19.316Z,41.07
2023-09-11T20:13:47.463Z,40.90
2023-09-11T20:16:15.132Z,41.17
2023-09-11T20:18:43.076Z,38.80
2023-09-11T20:21:11.145Z,40.73
2023-09-11T20:23:38.751Z,38.90
2023-09-11T20:26:07.753Z,40.67
2023-09-11T20:28:35.351Z,41.23
2023-09-11T20:31:04.284Z,42.43
2023-09-11T20:33:32.057Z,48.83
2023-09-11T20:35:59.766Z,47.03
2023-09-11T20:38:27.380Z,47.53
2023-09-11T20:40:55.028Z,44.33
2023-09-11T20:43:24.081Z,52.23
2023-09-11T20:45:51.675Z,46.37
2023-09-11T20:48:19.543Z,52.97
2023-09-11T20:50:47.414Z,53.43
2023-09-11T20:53:14.986Z,52.53
2023-09-11T20:55:42.660Z,56.50
2023-09-11T20:58:10.733Z,57.30
2023-09-11T21:00:39.983Z,54.80
2023-09-11T21:03:07.755Z,60.10
2023-09-11T21:05:36.779Z,54.73
2023-09-11T21:08:05.546Z,71.83
2023-09-11T21:10:33.197Z,60.30
2023-09-11T21:13:01.026Z,60.00
2023-09-11T21:15:28.794Z,61.50
2023-09-11T21:17:58.064Z,60.63
2023-09-11T21:20:25.681Z,61.90
2023-09-11T21:22:53.417Z,73.07
2023-09-11T21:25:21.145Z,64.60
2023-09-11T21:27:48.847Z,62.53
2023-09-11T21:30:16.509Z,56.60
2023-09-11T21:32:44.376Z,64.70
2023-09-11T21:35:13.369Z,60.70
2023-09-11T21:37:41.226Z,58.97
2023-09-11T21:40:10.345Z,58.93
2023-09-11T21:42:38.040Z,62.27
2023-09-11T21:45:06.597Z,66.73
2023-09-11T21:47:34.351Z,62.77
2023-09-11T21:50:02.068Z,59.13
2023-09-11T21:52:31.031Z,64.20
2023-09-11T21:54:58.911Z,61.47
2023-09-11T21:57:26.773Z,65.97
2023-09-11T21:59:54.490Z,63.60
2023-09-11T22:02:22.264Z,64.37
2023-09-11T22:04:51.341Z,59.77
2023-09-11T22:07:19.269Z,59.50
2023-09-11T22:09:48.204Z,56.27
2023-09-11T22:12:16.015Z,53.83
2023-09-11T22:14:43.831Z,58.93
2023-09-11T22:17:12.545Z,56.77
2023-09-11T22:19:40.402Z,55.60
2023-09-11T22:22:08.156Z,52.60
2023-09-11T22:24:35.780Z,55.63
2023-09-11T22:27:21.051Z,61.43
2023-09-11T22:29:50.493Z,52.63
2023-09-11T22:32:18.170Z,54.20
2023-09-11T22:34:46.010Z,50.80
2023-09-11T22:37:13.832Z,48.93
2023-09-11T22:39:41.469Z,50.60
2023-09-11T22:42:10.560Z,60.97
2023-09-11T22:44:38.257Z,53.70
2023-09-11T22:47:05.950Z,55.50
2023-09-11T22:49:33.723Z,59.20
2023-09-11T22:52:01.781Z,53.17
2023-09-11T22:54:30.591Z,55.27
2023-09-11T22:56:58.322Z,57.87
2023-09-11T22:59:27.483Z,59.80
2023-09-11T23:01:55.186Z,56.80
2023-09-11T23:04:23.227Z,56.43
2023-09-11T23:06:50.948Z,63.20
2023-09-11T23:09:18.675Z,59.30
2023-09-11T23:11:46.291Z,57.23
2023-09-11T23:14:13.989Z,57.33
2023-09-11T23:16:43.033Z,60.60
2023-09-11T23:19:10.788Z,63.47
2023-09-11T23:21:39.765Z,58.37
2023-09-11T23:24:14.497Z,61.20
2023-09-11T23:26:42.865Z,63.60
2023-09-11T23:29:11.357Z,60.77
2023-09-11T23:31:39.241Z,60.70
2023-09-11T23:34:08.230Z,61.07
2023-09-11T23:36:35.016Z,61.37
2023-09-11T23:39:04.502Z,66.40
2023-09-11T23:41:32.321Z,62.37
2023-09-11T23:44:00.189Z,63.73
2023-09-11T23:46:30.108Z,62.80
2023-09-11T23:48:58.321Z,59.43
2023-09-11T23:51:27.698Z,58.43
2023-09-11T23:53:55.394Z,61.83
2023-09-11T23:56:22.997Z,62.70
2023-09-11T23:58:50.569Z,61.40
